sensor_id;sensor_type;location;lat;lon;timestamp;P1;durP1;ratioP1;P2;durP2;ratioP2
8407;SDS011;4241;48.452;9.216;2023-02-28T00:00:50;134.70;;;59.00;;
8407;SDS011;4241;48.452;9.216;2023-02-28T00:03:17;132.77;;;58.50;;
8407;SDS011;4241;48.452;9.216;2023-02-28T00:05:44;133.00;;;57.97;;
8407;SDS011;4241;48.452;9.216;2023-02-28T00:08:11;135.20;;;59.10;;
8407;SDS011;4241;48.452;9.216;2023-02-28T00:10:38;139.33;;;60.97;;
8407;SDS011;4241;48.452;9.216;2023-02-28T00:13:05;137.67;;;60.03;;
8407;SDS011;4241;48.452;9.216;2023-02-28T00:15:34;133.13;;;58.60;;
8407;SDS011;4241;48.452;9.216;2023-02-28T00:18:01;135.83;;;59.33;;
8407;SDS011;4241;48.452;9.216;2023-02-28T00:20:28;131.00;;;57.73;;
8407;SDS011;4241;48.452;9.216;2023-02-28T00:22:55;130.50;;;57.47;;
8407;SDS011;4241;48.452;9.216;2023-02-28T00:25:23;131.93;;;58.27;;
8407;SDS011;4241;48.452;9.216;2023-02-28T00:27:51;135.17;;;59.50;;
8407;SDS011;4241;48.452;9.216;2023-02-28T00:30:18;130.13;;;57.73;;
8407;SDS011;4241;48.452;9.216;2023-02-28T00:32:47;129.50;;;57.47;;
8407;SDS011;4241;48.452;9.216;2023-02-28T00:35:15;129.43;;;57.73;;
8407;SDS011;4241;48.452;9.216;2023-02-28T00:37:42;131.50;;;57.93;;
8407;SDS011;4241;48.452;9.216;2023-02-28T00:40:10;132.30;;;58.83;;
8407;SDS011;4241;48.452;9.216;2023-02-28T00:42:38;129.77;;;57.30;;
8407;SDS011;4241;48.452;9.216;2023-02-28T00:45:05;129.03;;;57.07;;
8407;SDS011;4241;48.452;9.216;2023-02-28T00:47:33;129.93;;;57.47;;
8407;SDS011;4241;48.452;9.216;2023-02-28T00:50:02;127.83;;;56.37;;
8407;SDS011;4241;48.452;9.216;2023-02-28T00:52:29;126.73;;;56.80;;
8407;SDS011;4241;48.452;9.216;2023-02-28T00:54:56;129.67;;;58.57;;
8407;SDS011;4241;48.452;9.216;2023-02-28T00:57:23;126.40;;;57.13;;
8407;SDS011;4241;48.452;9.216;2023-02-28T00:59:51;123.80;;;56.07;;
8407;SDS011;4241;48.452;9.216;2023-02-28T01:02:19;128.17;;;57.83;;
8407;SDS011;4241;48.452;9.216;2023-02-28T01:04:46;130.77;;;58.53;;
8407;SDS011;4241;48.452;9.216;2023-02-28T01:07:15;127.93;;;57.53;;
8407;SDS011;4241;48.452;9.216;2023-02-28T01:09:42;123.53;;;55.63;;
8407;SDS011;4241;48.452;9.216;2023-02-28T01:12:09;121.80;;;55.30;;
8407;SDS011;4241;48.452;9.216;2023-02-28T01:14:36;124.83;;;56.17;;
8407;SDS011;4241;48.452;9.216;2023-02-28T01:17:03;124.33;;;55.97;;
8407;SDS011;4241;48.452;9.216;2023-02-28T01:19:29;124.20;;;56.10;;
8407;SDS011;4241;48.452;9.216;2023-02-28T01:21:56;133.60;;;59.63;;
8407;SDS011;4241;48.452;9.216;2023-02-28T01:24:27;126.90;;;57.20;;
8407;SDS011;4241;48.452;9.216;2023-02-28T01:26:54;125.80;;;56.87;;
8407;SDS011;4241;48.452;9.216;2023-02-28T01:29:21;123.37;;;55.70;;
8407;SDS011;4241;48.452;9.216;2023-02-28T01:31:48;123.50;;;56.07;;
8407;SDS011;4241;48.452;9.216;2023-02-28T01:34:14;127.67;;;58.77;;
8407;SDS011;4241;48.452;9.216;2023-02-28T01:36:44;125.37;;;56.90;;
8407;SDS011;4241;48.452;9.216;2023-02-28T01:39:10;122.87;;;55.90;;
8407;SDS011;4241;48.452;9.216;2023-02-28T01:41:39;124.60;;;55.97;;
8407;SDS011;4241;48.452;9.216;2023-02-28T01:44:07;119.17;;;54.27;;
8407;SDS011;4241;48.452;9.216;2023-02-28T01:47:12;115.37;;;53.17;;
8407;SDS011;4241;48.452;9.216;2023-02-28T01:49:39;118.83;;;54.27;;
8407;SDS011;4241;48.452;9.216;2023-02-28T01:52:06;120.97;;;55.33;;
8407;SDS011;4241;48.452;9.216;2023-02-28T01:54:34;123.70;;;56.10;;
8407;SDS011;4241;48.452;9.216;2023-02-28T01:57:03;125.37;;;56.60;;
8407;SDS011;4241;48.452;9.216;2023-02-28T01:59:33;124.03;;;56.47;;
8407;SDS011;4241;48.452;9.216;2023-02-28T02:02:03;121.43;;;55.73;;
8407;SDS011;4241;48.452;9.216;2023-02-28T02:04:32;129.73;;;58.60;;
8407;SDS011;4241;48.452;9.216;2023-02-28T02:07:04;119.57;;;55.00;;
8407;SDS011;4241;48.452;9.216;2023-02-28T02:09:32;117.80;;;54.37;;
8407;SDS011;4241;48.452;9.216;2023-02-28T02:11:59;123.20;;;55.83;;
8407;SDS011;4241;48.452;9.216;2023-02-28T02:14:39;119.50;;;54.80;;
8407;SDS011;4241;48.452;9.216;2023-02-28T02:17:20;117.03;;;53.93;;
8407;SDS011;4241;48.452;9.216;2023-02-28T02:20:14;114.90;;;53.17;;
8407;SDS011;4241;48.452;9.216;2023-02-28T02:29:23;115.17;;;53.37;;
8407;SDS011;4241;48.452;9.216;2023-02-28T02:32:16;121.50;;;56.07;;
8407;SDS011;4241;48.452;9.216;2023-02-28T02:35:10;115.40;;;53.93;;
8407;SDS011;4241;48.452;9.216;2023-02-28T02:37:41;117.50;;;54.53;;
8407;SDS011;4241;48.452;9.216;2023-02-28T02:40:14;122.77;;;56.47;;
8407;SDS011;4241;48.452;9.216;2023-02-28T02:42:46;120.73;;;55.50;;
8407;SDS011;4241;48.452;9.216;2023-02-28T02:45:18;122.00;;;55.40;;
8407;SDS011;4241;48.452;9.216;2023-02-28T02:47:50;118.87;;;54.13;;
8407;SDS011;4241;48.452;9.216;2023-02-28T02:50:20;117.83;;;53.60;;
8407;SDS011;4241;48.452;9.216;2023-02-28T02:52:53;119.17;;;54.40;;
8407;SDS011;4241;48.452;9.216;2023-02-28T02:55:22;120.20;;;55.30;;
8407;SDS011;4241;48.452;9.216;2023-02-28T02:57:51;126.57;;;56.93;;
8407;SDS011;4241;48.452;9.216;2023-02-28T03:00:22;122.23;;;55.37;;
8407;SDS011;4241;48.452;9.216;2023-02-28T03:02:51;119.47;;;54.17;;
8407;SDS011;4241;48.452;9.216;2023-02-28T03:05:21;121.00;;;55.40;;
8407;SDS011;4241;48.452;9.216;2023-02-28T03:07:52;116.30;;;53.03;;
8407;SDS011;4241;48.452;9.216;2023-02-28T03:10:33;126.93;;;57.13;;
8407;SDS011;4241;48.452;9.216;2023-02-28T03:13:11;120.30;;;54.77;;
8407;SDS011;4241;48.452;9.216;2023-02-28T03:16:07;119.60;;;54.67;;
8407;SDS011;4241;48.452;9.216;2023-02-28T03:18:50;133.80;;;60.90;;
8407;SDS011;4241;48.452;9.216;2023-02-28T03:21:27;123.97;;;55.70;;
8407;SDS011;4241;48.452;9.216;2023-02-28T03:24:03;120.37;;;54.57;;
8407;SDS011;4241;48.452;9.216;2023-02-28T03:26:33;120.00;;;54.87;;
8407;SDS011;4241;48.452;9.216;2023-02-28T03:29:04;126.27;;;56.90;;
8407;SDS011;4241;48.452;9.216;2023-02-28T03:31:43;120.20;;;54.30;;
8407;SDS011;4241;48.452;9.216;2023-02-28T03:34:17;120.57;;;54.83;;
8407;SDS011;4241;48.452;9.216;2023-02-28T03:36:52;121.63;;;55.27;;
8407;SDS011;4241;48.452;9.216;2023-02-28T03:39:21;126.27;;;56.93;;
8407;SDS011;4241;48.452;9.216;2023-02-28T03:41:52;123.63;;;55.40;;
8407;SDS011;4241;48.452;9.216;2023-02-28T03:44:24;123.50;;;56.47;;
8407;SDS011;4241;48.452;9.216;2023-02-28T03:46:56;123.43;;;56.10;;
8407;SDS011;4241;48.452;9.216;2023-02-28T03:49:27;124.77;;;56.00;;
8407;SDS011;4241;48.452;9.216;2023-02-28T03:52:00;129.63;;;58.67;;
8407;SDS011;4241;48.452;9.216;2023-02-28T03:54:30;125.43;;;56.50;;
8407;SDS011;4241;48.452;9.216;2023-02-28T03:57:02;123.47;;;55.63;;
8407;SDS011;4241;48.452;9.216;2023-02-28T03:59:34;125.23;;;56.77;;
8407;SDS011;4241;48.452;9.216;2023-02-28T04:02:05;128.67;;;57.33;;
8407;SDS011;4241;48.452;9.216;2023-02-28T04:04:33;130.37;;;58.47;;
8407;SDS011;4241;48.452;9.216;2023-02-28T04:07:02;130.20;;;57.70;;
8407;SDS011;4241;48.452;9.216;2023-02-28T04:09:30;128.53;;;57.13;;
8407;SDS011;4241;48.452;9.216;2023-02-28T04:11:58;125.80;;;56.27;;
8407;SDS011;4241;48.452;9.216;2023-02-28T04:14:25;125.77;;;56.23;;
8407;SDS011;4241;48.452;9.216;2023-02-28T04:16:52;127.47;;;57.53;;
8407;SDS011;4241;48.452;9.216;2023-02-28T04:19:19;125.27;;;56.37;;
8407;SDS011;4241;48.452;9.216;2023-02-28T04:21:47;125.00;;;55.53;;
8407;SDS011;4241;48.452;9.216;2023-02-28T04:24:17;124.47;;;55.80;;
8407;SDS011;4241;48.452;9.216;2023-02-28T04:26:45;128.67;;;57.03;;
8407;SDS011;4241;48.452;9.216;2023-02-28T04:29:14;125.53;;;55.80;;
8407;SDS011;4241;48.452;9.216;2023-02-28T04:31:45;127.27;;;56.43;;
8407;SDS011;4241;48.452;9.216;2023-02-28T04:34:12;131.70;;;57.87;;
8407;SDS011;4241;48.452;9.216;2023-02-28T04:36:39;129.80;;;57.33;;
8407;SDS011;4241;48.452;9.216;2023-02-28T04:39:05;132.13;;;58.43;;
8407;SDS011;4241;48.452;9.216;2023-02-28T04:41:36;129.07;;;56.83;;
8407;SDS011;4241;48.452;9.216;2023-02-28T04:44:02;130.43;;;57.50;;
8407;SDS011;4241;48.452;9.216;2023-02-28T04:46:29;128.57;;;56.77;;
8407;SDS011;4241;48.452;9.216;2023-02-28T04:48:57;128.93;;;57.43;;
8407;SDS011;4241;48.452;9.216;2023-02-28T04:51:24;127.20;;;56.37;;
8407;SDS011;4241;48.452;9.216;2023-02-28T04:53:50;134.93;;;59.77;;
8407;SDS011;4241;48.452;9.216;2023-02-28T04:56:18;128.43;;;56.70;;
8407;SDS011;4241;48.452;9.216;2023-02-28T04:58:46;142.73;;;63.40;;
8407;SDS011;4241;48.452;9.216;2023-02-28T05:01:16;128.43;;;56.90;;
8407;SDS011;4241;48.452;9.216;2023-02-28T05:03:45;124.20;;;55.27;;
8407;SDS011;4241;48.452;9.216;2023-02-28T05:06:12;127.63;;;56.33;;
8407;SDS011;4241;48.452;9.216;2023-02-28T05:08:39;146.80;;;65.10;;
8407;SDS011;4241;48.452;9.216;2023-02-28T05:11:07;128.47;;;56.70;;
8407;SDS011;4241;48.452;9.216;2023-02-28T05:13:40;130.10;;;57.07;;
8407;SDS011;4241;48.452;9.216;2023-02-28T05:16:08;151.87;;;67.17;;
8407;SDS011;4241;48.452;9.216;2023-02-28T05:18:35;136.07;;;59.63;;
8407;SDS011;4241;48.452;9.216;2023-02-28T05:21:02;131.83;;;58.53;;
8407;SDS011;4241;48.452;9.216;2023-02-28T05:23:29;133.77;;;58.93;;
8407;SDS011;4241;48.452;9.216;2023-02-28T05:25:56;134.80;;;59.50;;
8407;SDS011;4241;48.452;9.216;2023-02-28T05:28:23;138.73;;;60.93;;
8407;SDS011;4241;48.452;9.216;2023-02-28T05:30:50;133.57;;;57.77;;
8407;SDS011;4241;48.452;9.216;2023-02-28T05:33:18;130.17;;;56.63;;
8407;SDS011;4241;48.452;9.216;2023-02-28T05:35:45;131.23;;;57.60;;
8407;SDS011;4241;48.452;9.216;2023-02-28T05:38:12;133.47;;;58.43;;
8407;SDS011;4241;48.452;9.216;2023-02-28T05:40:39;129.60;;;56.93;;
8407;SDS011;4241;48.452;9.216;2023-02-28T05:43:07;130.63;;;57.47;;
8407;SDS011;4241;48.452;9.216;2023-02-28T05:45:37;133.63;;;58.23;;
8407;SDS011;4241;48.452;9.216;2023-02-28T05:48:04;131.10;;;57.07;;
8407;SDS011;4241;48.452;9.216;2023-02-28T05:50:32;140.20;;;59.97;;
8407;SDS011;4241;48.452;9.216;2023-02-28T05:52:59;133.97;;;58.77;;
8407;SDS011;4241;48.452;9.216;2023-02-28T05:55:26;132.97;;;58.37;;
8407;SDS011;4241;48.452;9.216;2023-02-28T05:57:53;130.20;;;57.27;;
8407;SDS011;4241;48.452;9.216;2023-02-28T06:00:21;137.37;;;60.43;;
8407;SDS011;4241;48.452;9.216;2023-02-28T06:02:48;129.83;;;56.70;;
8407;SDS011;4241;48.452;9.216;2023-02-28T06:05:16;132.63;;;58.37;;
8407;SDS011;4241;48.452;9.216;2023-02-28T06:07:45;140.93;;;61.03;;
8407;SDS011;4241;48.452;9.216;2023-02-28T06:10:12;136.67;;;59.50;;
8407;SDS011;4241;48.452;9.216;2023-02-28T06:12:39;132.50;;;57.90;;
8407;SDS011;4241;48.452;9.216;2023-02-28T06:15:07;132.50;;;58.40;;
8407;SDS011;4241;48.452;9.216;2023-02-28T06:17:38;130.90;;;57.43;;
8407;SDS011;4241;48.452;9.216;2023-02-28T06:20:05;135.23;;;58.83;;
8407;SDS011;4241;48.452;9.216;2023-02-28T06:22:34;137.77;;;59.93;;
8407;SDS011;4241;48.452;9.216;2023-02-28T06:25:03;135.20;;;58.93;;
8407;SDS011;4241;48.452;9.216;2023-02-28T06:27:30;135.30;;;58.37;;
8407;SDS011;4241;48.452;9.216;2023-02-28T06:29:57;133.80;;;57.03;;
8407;SDS011;4241;48.452;9.216;2023-02-28T06:32:24;139.00;;;60.40;;
8407;SDS011;4241;48.452;9.216;2023-02-28T06:34:51;137.97;;;59.17;;
8407;SDS011;4241;48.452;9.216;2023-02-28T06:37:18;137.87;;;59.33;;
8407;SDS011;4241;48.452;9.216;2023-02-28T06:39:45;138.43;;;59.63;;
8407;SDS011;4241;48.452;9.216;2023-02-28T06:42:14;140.30;;;60.00;;
8407;SDS011;4241;48.452;9.216;2023-02-28T06:44:40;140.13;;;60.37;;
8407;SDS011;4241;48.452;9.216;2023-02-28T06:47:08;144.43;;;62.10;;
8407;SDS011;4241;48.452;9.216;2023-02-28T06:49:35;146.10;;;62.53;;
8407;SDS011;4241;48.452;9.216;2023-02-28T06:52:04;139.80;;;60.17;;
8407;SDS011;4241;48.452;9.216;2023-02-28T06:54:31;137.87;;;59.13;;
8407;SDS011;4241;48.452;9.216;2023-02-28T06:56:58;141.07;;;60.57;;
8407;SDS011;4241;48.452;9.216;2023-02-28T06:59:26;146.27;;;62.27;;
8407;SDS011;4241;48.452;9.216;2023-02-28T07:01:53;142.60;;;61.87;;
8407;SDS011;4241;48.452;9.216;2023-02-28T07:04:20;145.20;;;61.47;;
8407;SDS011;4241;48.452;9.216;2023-02-28T07:06:47;143.60;;;60.93;;
8407;SDS011;4241;48.452;9.216;2023-02-28T07:09:14;141.00;;;59.87;;
8407;SDS011;4241;48.452;9.216;2023-02-28T07:11:41;141.80;;;60.33;;
8407;SDS011;4241;48.452;9.216;2023-02-28T07:14:08;139.90;;;59.67;;
8407;SDS011;4241;48.452;9.216;2023-02-28T07:16:37;143.93;;;61.40;;
8407;SDS011;4241;48.452;9.216;2023-02-28T07:19:04;142.23;;;60.17;;
8407;SDS011;4241;48.452;9.216;2023-02-28T07:21:30;140.97;;;59.73;;
8407;SDS011;4241;48.452;9.216;2023-02-28T07:23:58;145.47;;;61.50;;
8407;SDS011;4241;48.452;9.216;2023-02-28T07:26:24;145.17;;;60.87;;
8407;SDS011;4241;48.452;9.216;2023-02-28T07:28:51;157.50;;;66.43;;
8407;SDS011;4241;48.452;9.216;2023-02-28T07:31:19;147.17;;;61.93;;
8407;SDS011;4241;48.452;9.216;2023-02-28T07:33:47;148.63;;;62.43;;
8407;SDS011;4241;48.452;9.216;2023-02-28T07:36:15;144.40;;;60.87;;
8407;SDS011;4241;48.452;9.216;2023-02-28T07:38:43;166.17;;;71.87;;
8407;SDS011;4241;48.452;9.216;2023-02-28T07:41:13;144.10;;;60.63;;
8407;SDS011;4241;48.452;9.216;2023-02-28T07:43:39;145.30;;;60.87;;
8407;SDS011;4241;48.452;9.216;2023-02-28T07:46:07;149.77;;;62.90;;
8407;SDS011;4241;48.452;9.216;2023-02-28T07:48:35;157.80;;;66.77;;
8407;SDS011;4241;48.452;9.216;2023-02-28T07:51:04;152.87;;;63.53;;
8407;SDS011;4241;48.452;9.216;2023-02-28T07:53:31;148.80;;;62.40;;
8407;SDS011;4241;48.452;9.216;2023-02-28T07:55:59;149.97;;;62.83;;
8407;SDS011;4241;48.452;9.216;2023-02-28T07:58:27;167.53;;;71.17;;
8407;SDS011;4241;48.452;9.216;2023-02-28T08:00:55;152.03;;;63.33;;
8407;SDS011;4241;48.452;9.216;2023-02-28T08:03:22;150.93;;;63.00;;
8407;SDS011;4241;48.452;9.216;2023-02-28T08:05:50;147.33;;;61.37;;
8407;SDS011;4241;48.452;9.216;2023-02-28T08:08:19;148.17;;;61.87;;
8407;SDS011;4241;48.452;9.216;2023-02-28T08:10:46;167.23;;;71.03;;
8407;SDS011;4241;48.452;9.216;2023-02-28T08:13:13;147.60;;;62.03;;
8407;SDS011;4241;48.452;9.216;2023-02-28T08:15:40;149.20;;;62.50;;
8407;SDS011;4241;48.452;9.216;2023-02-28T08:18:07;151.90;;;63.60;;
8407;SDS011;4241;48.452;9.216;2023-02-28T08:20:34;151.83;;;63.60;;
8407;SDS011;4241;48.452;9.216;2023-02-28T08:23:01;153.33;;;63.53;;
8407;SDS011;4241;48.452;9.216;2023-02-28T08:25:29;153.53;;;64.13;;
8407;SDS011;4241;48.452;9.216;2023-02-28T08:27:56;151.87;;;63.40;;
8407;SDS011;4241;48.452;9.216;2023-02-28T08:30:23;150.13;;;61.90;;
8407;SDS011;4241;48.452;9.216;2023-02-28T08:32:50;153.50;;;63.47;;
8407;SDS011;4241;48.452;9.216;2023-02-28T08:35:17;151.83;;;62.73;;
8407;SDS011;4241;48.452;9.216;2023-02-28T08:37:44;154.03;;;63.13;;
8407;SDS011;4241;48.452;9.216;2023-02-28T08:40:11;154.53;;;64.13;;
8407;SDS011;4241;48.452;9.216;2023-02-28T08:42:44;157.43;;;65.70;;
8407;SDS011;4241;48.452;9.216;2023-02-28T08:45:11;154.37;;;63.37;;
8407;SDS011;4241;48.452;9.216;2023-02-28T08:47:38;154.67;;;63.17;;
8407;SDS011;4241;48.452;9.216;2023-02-28T08:50:05;156.07;;;64.60;;
8407;SDS011;4241;48.452;9.216;2023-02-28T08:52:33;156.70;;;64.43;;
8407;SDS011;4241;48.452;9.216;2023-02-28T08:55:00;153.57;;;62.80;;
8407;SDS011;4241;48.452;9.216;2023-02-28T08:57:27;157.17;;;65.23;;
8407;SDS011;4241;48.452;9.216;2023-02-28T08:59:55;155.23;;;63.90;;
8407;SDS011;4241;48.452;9.216;2023-02-28T09:02:22;160.57;;;66.20;;
8407;SDS011;4241;48.452;9.216;2023-02-28T09:04:49;163.33;;;67.13;;
8407;SDS011;4241;48.452;9.216;2023-02-28T09:07:15;159.90;;;65.23;;
8407;SDS011;4241;48.452;9.216;2023-02-28T09:09:42;164.23;;;66.73;;
8407;SDS011;4241;48.452;9.216;2023-02-28T09:12:19;158.50;;;65.03;;
8407;SDS011;4241;48.452;9.216;2023-02-28T09:14:46;163.30;;;66.23;;
8407;SDS011;4241;48.452;9.216;2023-02-28T09:17:14;166.03;;;68.07;;
8407;SDS011;4241;48.452;9.216;2023-02-28T09:19:41;163.87;;;66.90;;
8407;SDS011;4241;48.452;9.216;2023-02-28T09:22:08;162.77;;;66.03;;
8407;SDS011;4241;48.452;9.216;2023-02-28T09:24:35;162.57;;;65.17;;
8407;SDS011;4241;48.452;9.216;2023-02-28T09:27:03;167.60;;;67.80;;
8407;SDS011;4241;48.452;9.216;2023-02-28T09:29:30;164.73;;;65.73;;
8407;SDS011;4241;48.452;9.216;2023-02-28T09:31:57;166.07;;;67.10;;
8407;SDS011;4241;48.452;9.216;2023-02-28T09:34:26;169.90;;;68.40;;
8407;SDS011;4241;48.452;9.216;2023-02-28T09:36:52;173.37;;;69.33;;
8407;SDS011;4241;48.452;9.216;2023-02-28T09:39:20;167.97;;;67.93;;
8407;SDS011;4241;48.452;9.216;2023-02-28T09:41:48;164.53;;;66.33;;
8407;SDS011;4241;48.452;9.216;2023-02-28T09:44:20;167.47;;;67.13;;
8407;SDS011;4241;48.452;9.216;2023-02-28T09:46:55;177.30;;;71.80;;
8407;SDS011;4241;48.452;9.216;2023-02-28T09:49:28;173.43;;;69.10;;
8407;SDS011;4241;48.452;9.216;2023-02-28T09:52:00;172.53;;;68.70;;
8407;SDS011;4241;48.452;9.216;2023-02-28T09:54:29;172.13;;;68.53;;
8407;SDS011;4241;48.452;9.216;2023-02-28T09:56:58;172.73;;;68.43;;
8407;SDS011;4241;48.452;9.216;2023-02-28T10:02:18;169.23;;;67.57;;
8407;SDS011;4241;48.452;9.216;2023-02-28T10:05:10;171.87;;;68.50;;
8407;SDS011;4241;48.452;9.216;2023-02-28T10:07:44;181.07;;;71.80;;
8407;SDS011;4241;48.452;9.216;2023-02-28T10:10:22;180.33;;;70.70;;
8407;SDS011;4241;48.452;9.216;2023-02-28T10:12:53;183.90;;;71.77;;
8407;SDS011;4241;48.452;9.216;2023-02-28T10:15:22;181.00;;;70.67;;
8407;SDS011;4241;48.452;9.216;2023-02-28T10:17:51;181.87;;;70.70;;
8407;SDS011;4241;48.452;9.216;2023-02-28T10:20:23;182.47;;;70.90;;
8407;SDS011;4241;48.452;9.216;2023-02-28T10:22:56;183.87;;;70.90;;
8407;SDS011;4241;48.452;9.216;2023-02-28T10:25:32;186.07;;;71.63;;
8407;SDS011;4241;48.452;9.216;2023-02-28T10:28:00;185.93;;;71.27;;
8407;SDS011;4241;48.452;9.216;2023-02-28T10:30:34;188.67;;;72.83;;
8407;SDS011;4241;48.452;9.216;2023-02-28T10:33:01;186.53;;;71.90;;
8407;SDS011;4241;48.452;9.216;2023-02-28T10:35:30;193.87;;;73.77;;
8407;SDS011;4241;48.452;9.216;2023-02-28T10:37:59;194.20;;;74.10;;
8407;SDS011;4241;48.452;9.216;2023-02-28T10:40:35;190.27;;;73.87;;
8407;SDS011;4241;48.452;9.216;2023-02-28T10:43:02;189.00;;;73.23;;
8407;SDS011;4241;48.452;9.216;2023-02-28T10:45:31;186.20;;;72.00;;
8407;SDS011;4241;48.452;9.216;2023-02-28T10:48:01;186.77;;;72.17;;
8407;SDS011;4241;48.452;9.216;2023-02-28T10:50:37;189.70;;;73.20;;
8407;SDS011;4241;48.452;9.216;2023-02-28T10:53:22;191.73;;;73.93;;
8407;SDS011;4241;48.452;9.216;2023-02-28T10:56:14;184.87;;;71.57;;
8407;SDS011;4241;48.452;9.216;2023-02-28T10:58:47;205.23;;;80.97;;
8407;SDS011;4241;48.452;9.216;2023-02-28T11:01:16;190.90;;;73.30;;
8407;SDS011;4241;48.452;9.216;2023-02-28T11:03:45;195.07;;;75.10;;
8407;SDS011;4241;48.452;9.216;2023-02-28T11:06:15;194.27;;;74.27;;
8407;SDS011;4241;48.452;9.216;2023-02-28T11:08:44;219.37;;;85.87;;
8407;SDS011;4241;48.452;9.216;2023-02-28T11:11:14;202.10;;;75.97;;
8407;SDS011;4241;48.452;9.216;2023-02-28T11:13:42;216.63;;;85.23;;
8407;SDS011;4241;48.452;9.216;2023-02-28T11:16:11;207.73;;;77.60;;
8407;SDS011;4241;48.452;9.216;2023-02-28T11:18:41;232.20;;;89.40;;
8407;SDS011;4241;48.452;9.216;2023-02-28T11:21:16;211.67;;;78.47;;
8407;SDS011;4241;48.452;9.216;2023-02-28T11:23:47;228.27;;;86.00;;
8407;SDS011;4241;48.452;9.216;2023-02-28T11:26:17;220.57;;;80.97;;
8407;SDS011;4241;48.452;9.216;2023-02-28T11:29:03;226.87;;;84.60;;
8407;SDS011;4241;48.452;9.216;2023-02-28T11:31:37;223.03;;;81.57;;
8407;SDS011;4241;48.452;9.216;2023-02-28T11:34:20;227.83;;;82.53;;
8407;SDS011;4241;48.452;9.216;2023-02-28T11:36:52;231.17;;;83.97;;
8407;SDS011;4241;48.452;9.216;2023-02-28T11:39:21;242.47;;;86.83;;
8407;SDS011;4241;48.452;9.216;2023-02-28T11:44:50;264.33;;;91.70;;
8407;SDS011;4241;48.452;9.216;2023-02-28T11:47:30;262.77;;;91.67;;
8407;SDS011;4241;48.452;9.216;2023-02-28T11:53:05;270.07;;;94.17;;
8407;SDS011;4241;48.452;9.216;2023-02-28T11:55:41;280.83;;;96.67;;
8407;SDS011;4241;48.452;9.216;2023-02-28T11:58:19;302.83;;;100.90;;
8407;SDS011;4241;48.452;9.216;2023-02-28T12:01:01;316.27;;;102.10;;
8407;SDS011;4241;48.452;9.216;2023-02-28T12:03:38;326.97;;;104.57;;
8407;SDS011;4241;48.452;9.216;2023-02-28T12:06:13;327.20;;;106.13;;
8407;SDS011;4241;48.452;9.216;2023-02-28T12:08:53;339.67;;;114.43;;
8407;SDS011;4241;48.452;9.216;2023-02-28T12:11:40;326.53;;;106.43;;
8407;SDS011;4241;48.452;9.216;2023-02-28T12:14:18;323.83;;;107.93;;
8407;SDS011;4241;48.452;9.216;2023-02-28T12:17:00;317.10;;;106.77;;
8407;SDS011;4241;48.452;9.216;2023-02-28T12:19:41;311.07;;;104.23;;
8407;SDS011;4241;48.452;9.216;2023-02-28T12:22:30;309.90;;;103.10;;
8407;SDS011;4241;48.452;9.216;2023-02-28T12:28:02;299.53;;;100.20;;
8407;SDS011;4241;48.452;9.216;2023-02-28T12:30:31;299.30;;;101.07;;
8407;SDS011;4241;48.452;9.216;2023-02-28T12:33:01;297.43;;;101.00;;
8407;SDS011;4241;48.452;9.216;2023-02-28T12:35:32;290.23;;;97.23;;
8407;SDS011;4241;48.452;9.216;2023-02-28T12:38:04;294.77;;;99.17;;
8407;SDS011;4241;48.452;9.216;2023-02-28T12:40:40;295.17;;;99.60;;
8407;SDS011;4241;48.452;9.216;2023-02-28T12:43:13;297.13;;;101.83;;
8407;SDS011;4241;48.452;9.216;2023-02-28T12:45:43;286.77;;;97.97;;
8407;SDS011;4241;48.452;9.216;2023-02-28T12:48:15;279.47;;;96.13;;
8407;SDS011;4241;48.452;9.216;2023-02-28T12:50:47;274.83;;;94.93;;
8407;SDS011;4241;48.452;9.216;2023-02-28T12:53:15;277.17;;;95.63;;
8407;SDS011;4241;48.452;9.216;2023-02-28T12:55:50;275.27;;;95.17;;
8407;SDS011;4241;48.452;9.216;2023-02-28T12:58:27;270.13;;;92.77;;
8407;SDS011;4241;48.452;9.216;2023-02-28T13:01:04;267.27;;;93.63;;
8407;SDS011;4241;48.452;9.216;2023-02-28T13:03:46;274.67;;;96.37;;
8407;SDS011;4241;48.452;9.216;2023-02-28T13:06:33;265.77;;;92.87;;
8407;SDS011;4241;48.452;9.216;2023-02-28T13:09:16;263.90;;;93.50;;
8407;SDS011;4241;48.452;9.216;2023-02-28T13:11:44;307.03;;;113.80;;
8407;SDS011;4241;48.452;9.216;2023-02-28T13:14:22;270.53;;;95.07;;
8407;SDS011;4241;48.452;9.216;2023-02-28T13:16:58;264.33;;;91.60;;
8407;SDS011;4241;48.452;9.216;2023-02-28T13:19:28;263.23;;;92.10;;
8407;SDS011;4241;48.452;9.216;2023-02-28T13:21:57;266.67;;;93.40;;
8407;SDS011;4241;48.452;9.216;2023-02-28T13:24:39;265.67;;;92.23;;
8407;SDS011;4241;48.452;9.216;2023-02-28T13:30:02;264.30;;;92.03;;
8407;SDS011;4241;48.452;9.216;2023-02-28T13:33:26;261.37;;;91.40;;
8407;SDS011;4241;48.452;9.216;2023-02-28T13:36:08;263.50;;;91.93;;
8407;SDS011;4241;48.452;9.216;2023-02-28T13:38:48;269.43;;;97.63;;
8407;SDS011;4241;48.452;9.216;2023-02-28T13:44:13;254.87;;;89.53;;
8407;SDS011;4241;48.452;9.216;2023-02-28T13:50:18;248.20;;;87.73;;
8407;SDS011;4241;48.452;9.216;2023-02-28T13:52:51;251.77;;;89.73;;
8407;SDS011;4241;48.452;9.216;2023-02-28T13:55:27;249.10;;;88.07;;
8407;SDS011;4241;48.452;9.216;2023-02-28T13:58:00;252.03;;;89.50;;
8407;SDS011;4241;48.452;9.216;2023-02-28T14:00:42;258.90;;;92.83;;
8407;SDS011;4241;48.452;9.216;2023-02-28T14:03:26;261.97;;;94.87;;
8407;SDS011;4241;48.452;9.216;2023-02-28T14:06:14;266.00;;;94.63;;
8407;SDS011;4241;48.452;9.216;2023-02-28T14:08:54;263.33;;;94.77;;
8407;SDS011;4241;48.452;9.216;2023-02-28T14:11:25;252.00;;;88.37;;
8407;SDS011;4241;48.452;9.216;2023-02-28T14:13:54;257.87;;;90.53;;
8407;SDS011;4241;48.452;9.216;2023-02-28T14:16:22;257.77;;;91.10;;
8407;SDS011;4241;48.452;9.216;2023-02-28T14:18:52;270.93;;;96.73;;
8407;SDS011;4241;48.452;9.216;2023-02-28T14:21:26;257.10;;;89.93;;
8407;SDS011;4241;48.452;9.216;2023-02-28T14:24:02;259.00;;;91.80;;
8407;SDS011;4241;48.452;9.216;2023-02-28T14:29:56;251.97;;;89.10;;
8407;SDS011;4241;48.452;9.216;2023-02-28T14:32:32;253.80;;;89.13;;
8407;SDS011;4241;48.452;9.216;2023-02-28T14:35:11;306.43;;;119.37;;
8407;SDS011;4241;48.452;9.216;2023-02-28T14:37:46;252.93;;;88.03;;
8407;SDS011;4241;48.452;9.216;2023-02-28T14:40:14;251.70;;;87.60;;
8407;SDS011;4241;48.452;9.216;2023-02-28T14:42:46;257.67;;;90.27;;
8407;SDS011;4241;48.452;9.216;2023-02-28T14:45:20;253.90;;;88.33;;
8407;SDS011;4241;48.452;9.216;2023-02-28T14:47:48;253.87;;;89.47;;
8407;SDS011;4241;48.452;9.216;2023-02-28T14:50:17;253.63;;;88.80;;
8407;SDS011;4241;48.452;9.216;2023-02-28T14:52:47;256.27;;;90.03;;
8407;SDS011;4241;48.452;9.216;2023-02-28T14:55:18;254.93;;;89.87;;
8407;SDS011;4241;48.452;9.216;2023-02-28T14:57:53;256.10;;;90.70;;
8407;SDS011;4241;48.452;9.216;2023-02-28T15:00:22;254.80;;;90.10;;
8407;SDS011;4241;48.452;9.216;2023-02-28T15:02:51;256.23;;;90.40;;
8407;SDS011;4241;48.452;9.216;2023-02-28T15:05:21;259.07;;;92.27;;
8407;SDS011;4241;48.452;9.216;2023-02-28T15:08:02;254.43;;;90.23;;
8407;SDS011;4241;48.452;9.216;2023-02-28T15:10:38;255.00;;;91.33;;
8407;SDS011;4241;48.452;9.216;2023-02-28T15:13:07;256.87;;;90.70;;
8407;SDS011;4241;48.452;9.216;2023-02-28T15:15:41;308.83;;;121.90;;
8407;SDS011;4241;48.452;9.216;2023-02-28T15:18:13;257.30;;;91.27;;
8407;SDS011;4241;48.452;9.216;2023-02-28T15:20:46;257.27;;;91.27;;
8407;SDS011;4241;48.452;9.216;2023-02-28T15:23:21;261.63;;;93.67;;
8407;SDS011;4241;48.452;9.216;2023-02-28T15:25:48;280.83;;;102.33;;